sensor_id;sensor_type;location;lat;lon;timestamp;P1;durP1;ratioP1;P2;durP2;ratioP2
55063;SDS011;40963;52.168;21.296;2023-08-12T00:00:19;10.27;;;6.97;;
55063;SDS011;40963;52.168;21.296;2023-08-12T00:02:45;11.43;;;7.35;;
55063;SDS011;40963;52.168;21.296;2023-08-12T00:05:11;15.52;;;6.65;;
55063;SDS011;40963;52.168;21.296;2023-08-12T00:07:38;12.57;;;6.75;;
55063;SDS011;40963;52.168;21.296;2023-08-12T00:10:07;11.07;;;7.10;;
55063;SDS011;40963;52.168;21.296;2023-08-12T00:12:34;12.98;;;7.15;;
55063;SDS011;40963;52.168;21.296;2023-08-12T00:15:01;14.40;;;7.45;;
55063;SDS011;40963;52.168;21.296;2023-08-12T00:17:27;10.15;;;6.63;;
55063;SDS011;40963;52.168;21.296;2023-08-12T00:19:53;11.63;;;7.50;;
55063;SDS011;40963;52.168;21.296;2023-08-12T00:22:19;11.63;;;7.35;;
55063;SDS011;40963;52.168;21.296;2023-08-12T00:24:44;11.57;;;7.97;;
55063;SDS011;40963;52.168;21.296;2023-08-12T00:27:10;13.25;;;6.68;;
55063;SDS011;40963;52.168;21.296;2023-08-12T00:29:36;13.82;;;7.10;;
55063;SDS011;40963;52.168;21.296;2023-08-12T00:32:02;11.73;;;7.70;;
55063;SDS011;40963;52.168;21.296;2023-08-12T00:34:28;11.90;;;6.93;;
55063;SDS011;40963;52.168;21.296;2023-08-12T00:36:53;10.85;;;6.75;;
55063;SDS011;40963;52.168;21.296;2023-08-12T00:39:19;10.48;;;6.95;;
55063;SDS011;40963;52.168;21.296;2023-08-12T00:41:45;11.10;;;6.75;;
55063;SDS011;40963;52.168;21.296;2023-08-12T00:44:10;11.10;;;6.78;;
55063;SDS011;40963;52.168;21.296;2023-08-12T00:46:37;12.32;;;6.82;;
55063;SDS011;40963;52.168;21.296;2023-08-12T00:49:05;14.20;;;6.75;;
55063;SDS011;40963;52.168;21.296;2023-08-12T00:51:31;12.10;;;6.57;;
55063;SDS011;40963;52.168;21.296;2023-08-12T00:53:57;16.33;;;6.80;;
55063;SDS011;40963;52.168;21.296;2023-08-12T00:56:24;11.48;;;6.97;;
55063;SDS011;40963;52.168;21.296;2023-08-12T00:58:50;12.55;;;6.47;;
55063;SDS011;40963;52.168;21.296;2023-08-12T01:01:17;16.85;;;6.18;;
55063;SDS011;40963;52.168;21.296;2023-08-12T01:03:43;12.88;;;6.70;;
55063;SDS011;40963;52.168;21.296;2023-08-12T01:06:09;15.43;;;6.95;;
55063;SDS011;40963;52.168;21.296;2023-08-12T01:08:34;10.98;;;6.72;;
55063;SDS011;40963;52.168;21.296;2023-08-12T01:11:03;10.32;;;6.07;;
55063;SDS011;40963;52.168;21.296;2023-08-12T01:14:12;12.07;;;6.68;;
55063;SDS011;40963;52.168;21.296;2023-08-12T01:16:40;11.52;;;6.50;;
55063;SDS011;40963;52.168;21.296;2023-08-12T01:19:10;11.82;;;6.38;;
55063;SDS011;40963;52.168;21.296;2023-08-12T01:21:43;17.23;;;7.18;;
55063;SDS011;40963;52.168;21.296;2023-08-12T01:24:09;13.18;;;7.35;;
55063;SDS011;40963;52.168;21.296;2023-08-12T01:26:35;12.18;;;7.30;;
55063;SDS011;40963;52.168;21.296;2023-08-12T01:29:01;11.55;;;6.95;;
55063;SDS011;40963;52.168;21.296;2023-08-12T01:31:29;12.93;;;7.22;;
55063;SDS011;40963;52.168;21.296;2023-08-12T01:34:10;9.60;;;6.75;;
55063;SDS011;40963;52.168;21.296;2023-08-12T01:36:41;13.23;;;7.07;;
55063;SDS011;40963;52.168;21.296;2023-08-12T01:39:15;14.23;;;7.70;;
55063;SDS011;40963;52.168;21.296;2023-08-12T01:41:43;11.77;;;6.88;;
55063;SDS011;40963;52.168;21.296;2023-08-12T01:44:09;11.32;;;6.72;;
55063;SDS011;40963;52.168;21.296;2023-08-12T01:46:35;10.60;;;7.00;;
55063;SDS011;40963;52.168;21.296;2023-08-12T01:49:01;12.43;;;7.15;;
55063;SDS011;40963;52.168;21.296;2023-08-12T01:51:27;10.00;;;6.88;;
55063;SDS011;40963;52.168;21.296;2023-08-12T01:53:53;16.88;;;6.75;;
55063;SDS011;40963;52.168;21.296;2023-08-12T01:56:19;12.73;;;7.05;;
55063;SDS011;40963;52.168;21.296;2023-08-12T01:58:45;9.43;;;6.78;;
55063;SDS011;40963;52.168;21.296;2023-08-12T02:01:10;10.60;;;7.10;;
55063;SDS011;40963;52.168;21.296;2023-08-12T02:03:36;16.17;;;6.85;;
55063;SDS011;40963;52.168;21.296;2023-08-12T02:06:01;8.88;;;6.57;;
55063;SDS011;40963;52.168;21.296;2023-08-12T02:08:27;17.52;;;7.18;;
55063;SDS011;40963;52.168;21.296;2023-08-12T02:10:52;8.60;;;6.45;;
55063;SDS011;40963;52.168;21.296;2023-08-12T02:13:18;13.07;;;6.30;;
55063;SDS011;40963;52.168;21.296;2023-08-12T02:15:44;11.27;;;6.57;;
55063;SDS011;40963;52.168;21.296;2023-08-12T02:18:09;8.88;;;5.95;;
55063;SDS011;40963;52.168;21.296;2023-08-12T02:20:35;10.50;;;6.95;;
55063;SDS011;40963;52.168;21.296;2023-08-12T02:23:00;10.57;;;7.10;;
55063;SDS011;40963;52.168;21.296;2023-08-12T02:25:26;12.52;;;7.50;;
55063;SDS011;40963;52.168;21.296;2023-08-12T02:27:52;9.90;;;6.47;;
55063;SDS011;40963;52.168;21.296;2023-08-12T02:30:17;11.20;;;6.70;;
55063;SDS011;40963;52.168;21.296;2023-08-12T02:32:43;9.88;;;6.68;;
55063;SDS011;40963;52.168;21.296;2023-08-12T02:35:09;11.32;;;7.20;;
55063;SDS011;40963;52.168;21.296;2023-08-12T02:37:35;10.90;;;7.60;;
55063;SDS011;40963;52.168;21.296;2023-08-12T02:40:00;10.77;;;6.30;;
55063;SDS011;40963;52.168;21.296;2023-08-12T02:42:29;11.93;;;7.18;;
55063;SDS011;40963;52.168;21.296;2023-08-12T02:44:55;12.48;;;6.80;;
55063;SDS011;40963;52.168;21.296;2023-08-12T02:47:21;10.88;;;7.00;;
55063;SDS011;40963;52.168;21.296;2023-08-12T02:49:47;9.07;;;6.95;;
55063;SDS011;40963;52.168;21.296;2023-08-12T02:52:13;12.70;;;7.57;;
55063;SDS011;40963;52.168;21.296;2023-08-12T02:54:39;9.40;;;6.38;;
55063;SDS011;40963;52.168;21.296;2023-08-12T02:57:04;10.35;;;6.82;;
55063;SDS011;40963;52.168;21.296;2023-08-12T02:59:30;12.48;;;7.95;;
55063;SDS011;40963;52.168;21.296;2023-08-12T03:01:56;11.45;;;6.75;;
55063;SDS011;40963;52.168;21.296;2023-08-12T03:04:21;16.83;;;6.80;;
55063;SDS011;40963;52.168;21.296;2023-08-12T03:06:47;10.73;;;7.05;;
55063;SDS011;40963;52.168;21.296;2023-08-12T03:09:13;10.75;;;7.07;;
55063;SDS011;40963;52.168;21.296;2023-08-12T03:11:39;15.55;;;7.22;;
55063;SDS011;40963;52.168;21.296;2023-08-12T03:14:04;11.77;;;7.60;;
55063;SDS011;40963;52.168;21.296;2023-08-12T03:16:30;14.90;;;8.10;;
55063;SDS011;40963;52.168;21.296;2023-08-12T03:18:55;11.50;;;7.13;;
55063;SDS011;40963;52.168;21.296;2023-08-12T03:21:21;9.60;;;6.95;;
55063;SDS011;40963;52.168;21.296;2023-08-12T03:23:47;11.02;;;7.20;;
55063;SDS011;40963;52.168;21.296;2023-08-12T03:26:12;10.43;;;6.68;;
55063;SDS011;40963;52.168;21.296;2023-08-12T03:28:39;13.20;;;7.43;;
55063;SDS011;40963;52.168;21.296;2023-08-12T03:31:04;10.93;;;7.50;;
55063;SDS011;40963;52.168;21.296;2023-08-12T03:33:30;11.43;;;7.15;;
55063;SDS011;40963;52.168;21.296;2023-08-12T03:35:57;9.30;;;7.07;;
55063;SDS011;40963;52.168;21.296;2023-08-12T03:38:23;10.85;;;6.97;;
55063;SDS011;40963;52.168;21.296;2023-08-12T03:40:49;10.18;;;6.95;;
55063;SDS011;40963;52.168;21.296;2023-08-12T03:43:15;11.60;;;7.47;;
55063;SDS011;40963;52.168;21.296;2023-08-12T03:45:41;10.48;;;7.03;;
55063;SDS011;40963;52.168;21.296;2023-08-12T03:48:07;10.73;;;6.97;;
55063;SDS011;40963;52.168;21.296;2023-08-12T03:50:33;11.45;;;6.88;;
55063;SDS011;40963;52.168;21.296;2023-08-12T03:53:00;8.48;;;6.53;;
55063;SDS011;40963;52.168;21.296;2023-08-12T03:55:26;9.48;;;6.80;;
55063;SDS011;40963;52.168;21.296;2023-08-12T03:57:51;14.27;;;7.45;;
55063;SDS011;40963;52.168;21.296;2023-08-12T04:00:17;12.32;;;7.57;;
55063;SDS011;40963;52.168;21.296;2023-08-12T04:02:43;13.65;;;7.07;;
55063;SDS011;40963;52.168;21.296;2023-08-12T04:05:08;13.00;;;6.75;;
55063;SDS011;40963;52.168;21.296;2023-08-12T04:07:35;12.32;;;7.65;;
55063;SDS011;40963;52.168;21.296;2023-08-12T04:10:01;10.32;;;7.07;;
55063;SDS011;40963;52.168;21.296;2023-08-12T04:12:27;11.98;;;7.65;;
55063;SDS011;40963;52.168;21.296;2023-08-12T04:14:53;11.18;;;7.47;;
55063;SDS011;40963;52.168;21.296;2023-08-12T04:17:19;13.07;;;7.25;;
55063;SDS011;40963;52.168;21.296;2023-08-12T04:19:44;12.40;;;7.43;;
55063;SDS011;40963;52.168;21.296;2023-08-12T04:22:10;12.57;;;7.50;;
55063;SDS011;40963;52.168;21.296;2023-08-12T04:24:35;12.50;;;7.20;;
55063;SDS011;40963;52.168;21.296;2023-08-12T04:27:01;9.40;;;7.35;;
55063;SDS011;40963;52.168;21.296;2023-08-12T04:29:27;11.75;;;7.32;;
55063;SDS011;40963;52.168;21.296;2023-08-12T04:31:52;12.80;;;7.38;;
55063;SDS011;40963;52.168;21.296;2023-08-12T04:34:18;13.80;;;7.65;;
55063;SDS011;40963;52.168;21.296;2023-08-12T04:36:43;15.40;;;7.25;;
55063;SDS011;40963;52.168;21.296;2023-08-12T04:39:09;10.07;;;7.22;;
55063;SDS011;40963;52.168;21.296;2023-08-12T04:41:35;15.65;;;8.02;;
55063;SDS011;40963;52.168;21.296;2023-08-12T04:44:03;11.38;;;7.43;;
55063;SDS011;40963;52.168;21.296;2023-08-12T04:46:29;12.98;;;7.25;;
55063;SDS011;40963;52.168;21.296;2023-08-12T04:48:55;14.68;;;7.15;;
55063;SDS011;40963;52.168;21.296;2023-08-12T04:51:20;10.93;;;7.40;;
55063;SDS011;40963;52.168;21.296;2023-08-12T04:53:46;12.95;;;7.53;;
55063;SDS011;40963;52.168;21.296;2023-08-12T04:56:11;15.60;;;7.55;;
55063;SDS011;40963;52.168;21.296;2023-08-12T04:58:37;13.15;;;7.63;;
55063;SDS011;40963;52.168;21.296;2023-08-12T05:01:03;20.58;;;7.55;;
55063;SDS011;40963;52.168;21.296;2023-08-12T05:03:29;11.82;;;7.80;;
55063;SDS011;40963;52.168;21.296;2023-08-12T05:05:54;10.15;;;6.93;;
55063;SDS011;40963;52.168;21.296;2023-08-12T05:08:20;11.52;;;6.95;;
55063;SDS011;40963;52.168;21.296;2023-08-12T05:10:48;13.77;;;7.38;;
55063;SDS011;40963;52.168;21.296;2023-08-12T05:13:14;13.63;;;7.25;;
55063;SDS011;40963;52.168;21.296;2023-08-12T05:15:40;9.75;;;6.32;;
55063;SDS011;40963;52.168;21.296;2023-08-12T05:18:06;16.52;;;6.75;;
55063;SDS011;40963;52.168;21.296;2023-08-12T05:20:32;11.52;;;6.50;;
55063;SDS011;40963;52.168;21.296;2023-08-12T05:22:57;8.82;;;6.28;;
55063;SDS011;40963;52.168;21.296;2023-08-12T05:25:23;13.32;;;6.95;;
55063;SDS011;40963;52.168;21.296;2023-08-12T05:27:49;12.90;;;5.65;;
55063;SDS011;40963;52.168;21.296;2023-08-12T05:30:15;12.88;;;5.90;;
55063;SDS011;40963;52.168;21.296;2023-08-12T05:32:40;12.07;;;5.82;;
55063;SDS011;40963;52.168;21.296;2023-08-12T05:35:06;15.05;;;6.00;;
55063;SDS011;40963;52.168;21.296;2023-08-12T05:37:32;8.88;;;6.15;;
55063;SDS011;40963;52.168;21.296;2023-08-12T05:39:58;9.85;;;6.10;;
55063;SDS011;40963;52.168;21.296;2023-08-12T05:42:23;10.35;;;6.10;;
55063;SDS011;40963;52.168;21.296;2023-08-12T05:44:49;11.13;;;6.00;;
55063;SDS011;40963;52.168;21.296;2023-08-12T05:47:14;9.35;;;5.78;;
55063;SDS011;40963;52.168;21.296;2023-08-12T05:49:40;8.82;;;5.70;;
55063;SDS011;40963;52.168;21.296;2023-08-12T05:52:07;10.68;;;6.60;;
55063;SDS011;40963;52.168;21.296;2023-08-12T05:54:32;13.07;;;5.65;;
55063;SDS011;40963;52.168;21.296;2023-08-12T05:56:58;8.82;;;5.90;;
55063;SDS011;40963;52.168;21.296;2023-08-12T05:59:27;7.93;;;5.32;;
55063;SDS011;40963;52.168;21.296;2023-08-12T06:01:53;10.55;;;5.55;;
55063;SDS011;40963;52.168;21.296;2023-08-12T06:04:19;7.22;;;5.25;;
55063;SDS011;40963;52.168;21.296;2023-08-12T06:06:44;7.45;;;5.22;;
55063;SDS011;40963;52.168;21.296;2023-08-12T06:09:10;11.13;;;5.40;;
55063;SDS011;40963;52.168;21.296;2023-08-12T06:11:35;8.52;;;5.15;;
55063;SDS011;40963;52.168;21.296;2023-08-12T06:14:01;10.35;;;4.97;;
55063;SDS011;40963;52.168;21.296;2023-08-12T06:16:27;8.27;;;4.72;;
55063;SDS011;40963;52.168;21.296;2023-08-12T06:18:52;8.18;;;4.63;;
55063;SDS011;40963;52.168;21.296;2023-08-12T06:21:18;6.72;;;4.75;;
55063;SDS011;40963;52.168;21.296;2023-08-12T06:23:43;6.78;;;4.78;;
55063;SDS011;40963;52.168;21.296;2023-08-12T06:26:09;8.82;;;4.70;;
55063;SDS011;40963;52.168;21.296;2023-08-12T06:28:34;8.65;;;5.15;;
55063;SDS011;40963;52.168;21.296;2023-08-12T06:31:00;7.72;;;4.53;;
55063;SDS011;40963;52.168;21.296;2023-08-12T06:33:26;8.82;;;4.25;;
55063;SDS011;40963;52.168;21.296;2023-08-12T06:35:52;7.60;;;4.68;;
55063;SDS011;40963;52.168;21.296;2023-08-12T06:38:17;8.93;;;4.60;;
55063;SDS011;40963;52.168;21.296;2023-08-12T06:40:43;10.32;;;4.63;;
55063;SDS011;40963;52.168;21.296;2023-08-12T06:43:09;10.32;;;4.20;;
55063;SDS011;40963;52.168;21.296;2023-08-12T06:45:35;8.07;;;3.95;;
55063;SDS011;40963;52.168;21.296;2023-08-12T06:48:01;6.65;;;4.20;;
55063;SDS011;40963;52.168;21.296;2023-08-12T06:50:29;5.97;;;3.90;;
55063;SDS011;40963;52.168;21.296;2023-08-12T06:52:55;9.45;;;3.65;;
55063;SDS011;40963;52.168;21.296;2023-08-12T06:55:21;5.68;;;3.80;;
55063;SDS011;40963;52.168;21.296;2023-08-12T06:57:46;9.05;;;3.47;;
55063;SDS011;40963;52.168;21.296;2023-08-12T07:00:12;12.77;;;3.30;;
55063;SDS011;40963;52.168;21.296;2023-08-12T07:02:38;6.28;;;2.50;;
55063;SDS011;40963;52.168;21.296;2023-08-12T07:05:06;3.13;;;2.60;;
55063;SDS011;40963;52.168;21.296;2023-08-12T07:07:32;4.97;;;2.22;;
55063;SDS011;40963;52.168;21.296;2023-08-12T07:09:58;3.92;;;2.75;;
55063;SDS011;40963;52.168;21.296;2023-08-12T07:12:23;3.38;;;2.40;;
55063;SDS011;40963;52.168;21.296;2023-08-12T07:14:49;25.42;;;3.30;;
55063;SDS011;40963;52.168;21.296;2023-08-12T07:17:14;7.30;;;2.50;;
55063;SDS011;40963;52.168;21.296;2023-08-12T07:19:40;3.25;;;2.20;;
55063;SDS011;40963;52.168;21.296;2023-08-12T07:22:05;7.18;;;2.03;;
55063;SDS011;40963;52.168;21.296;2023-08-12T07:24:31;5.20;;;2.00;;
55063;SDS011;40963;52.168;21.296;2023-08-12T07:26:56;2.50;;;1.33;;
55063;SDS011;40963;52.168;21.296;2023-08-12T07:29:22;4.43;;;1.77;;
55063;SDS011;40963;52.168;21.296;2023-08-12T07:31:48;6.40;;;1.90;;
55063;SDS011;40963;52.168;21.296;2023-08-12T07:34:13;3.85;;;1.70;;
55063;SDS011;40963;52.168;21.296;2023-08-12T07:36:39;6.20;;;1.80;;
55063;SDS011;40963;52.168;21.296;2023-08-12T07:39:05;3.08;;;1.67;;
55063;SDS011;40963;52.168;21.296;2023-08-12T07:41:32;2.80;;;1.27;;
55063;SDS011;40963;52.168;21.296;2023-08-12T07:43:57;3.67;;;1.58;;
55063;SDS011;40963;52.168;21.296;2023-08-12T07:46:23;3.08;;;1.10;;
55063;SDS011;40963;52.168;21.296;2023-08-12T07:48:49;2.85;;;1.10;;
55063;SDS011;40963;52.168;21.296;2023-08-12T07:51:14;3.13;;;1.27;;
55063;SDS011;40963;52.168;21.296;2023-08-12T07:53:40;4.68;;;1.40;;
55063;SDS011;40963;52.168;21.296;2023-08-12T07:56:05;8.30;;;1.40;;
55063;SDS011;40963;52.168;21.296;2023-08-12T07:58:31;8.35;;;1.80;;
55063;SDS011;40963;52.168;21.296;2023-08-12T08:00:57;3.33;;;1.73;;
55063;SDS011;40963;52.168;21.296;2023-08-12T08:03:22;2.53;;;1.50;;
55063;SDS011;40963;52.168;21.296;2023-08-12T08:05:48;5.05;;;1.60;;
55063;SDS011;40963;52.168;21.296;2023-08-12T08:08:13;4.10;;;1.75;;
55063;SDS011;40963;52.168;21.296;2023-08-12T08:10:39;4.03;;;1.40;;
55063;SDS011;40963;52.168;21.296;2023-08-12T08:13:05;12.88;;;1.42;;
55063;SDS011;40963;52.168;21.296;2023-08-12T08:15:30;3.85;;;1.63;;
55063;SDS011;40963;52.168;21.296;2023-08-12T08:17:56;1.70;;;1.40;;
55063;SDS011;40963;52.168;21.296;2023-08-12T08:20:21;2.58;;;1.73;;
55063;SDS011;40963;52.168;21.296;2023-08-12T08:22:47;5.78;;;1.50;;
55063;SDS011;40963;52.168;21.296;2023-08-12T08:25:13;3.88;;;1.50;;
55063;SDS011;40963;52.168;21.296;2023-08-12T08:27:38;4.40;;;1.65;;
55063;SDS011;40963;52.168;21.296;2023-08-12T08:30:05;4.18;;;1.58;;
55063;SDS011;40963;52.168;21.296;2023-08-12T08:32:33;6.63;;;1.80;;
55063;SDS011;40963;52.168;21.296;2023-08-12T08:34:59;2.58;;;1.63;;
55063;SDS011;40963;52.168;21.296;2023-08-12T08:37:25;1.50;;;1.40;;
55063;SDS011;40963;52.168;21.296;2023-08-12T08:39:50;3.22;;;1.70;;
55063;SDS011;40963;52.168;21.296;2023-08-12T08:42:16;6.47;;;1.77;;
55063;SDS011;40963;52.168;21.296;2023-08-12T08:44:44;4.30;;;1.50;;
55063;SDS011;40963;52.168;21.296;2023-08-12T08:47:11;5.68;;;1.60;;
55063;SDS011;40963;52.168;21.296;2023-08-12T08:49:39;5.68;;;1.55;;
55063;SDS011;40963;52.168;21.296;2023-08-12T08:52:06;3.67;;;1.50;;
55063;SDS011;40963;52.168;21.296;2023-08-12T08:54:32;4.25;;;1.70;;
55063;SDS011;40963;52.168;21.296;2023-08-12T08:56:59;7.22;;;2.88;;
55063;SDS011;40963;52.168;21.296;2023-08-12T08:59:26;2.55;;;1.40;;
55063;SDS011;40963;52.168;21.296;2023-08-12T09:01:51;6.22;;;1.40;;
55063;SDS011;40963;52.168;21.296;2023-08-12T09:04:20;2.20;;;1.67;;
55063;SDS011;40963;52.168;21.296;2023-08-12T09:06:47;2.97;;;1.33;;
55063;SDS011;40963;52.168;21.296;2023-08-12T09:09:15;4.35;;;1.60;;
55063;SDS011;40963;52.168;21.296;2023-08-12T09:11:44;1.90;;;1.48;;
55063;SDS011;40963;52.168;21.296;2023-08-12T09:14:10;5.43;;;1.30;;
55063;SDS011;40963;52.168;21.296;2023-08-12T09:16:36;6.13;;;1.80;;
55063;SDS011;40963;52.168;21.296;2023-08-12T09:19:02;4.43;;;1.52;;
55063;SDS011;40963;52.168;21.296;2023-08-12T09:21:28;10.00;;;1.42;;
55063;SDS011;40963;52.168;21.296;2023-08-12T09:23:53;2.33;;;1.65;;
55063;SDS011;40963;52.168;21.296;2023-08-12T09:26:20;3.03;;;1.45;;
55063;SDS011;40963;52.168;21.296;2023-08-12T09:28:47;5.57;;;3.00;;
55063;SDS011;40963;52.168;21.296;2023-08-12T09:31:22;4.07;;;1.75;;
55063;SDS011;40963;52.168;21.296;2023-08-12T09:33:50;6.60;;;1.85;;
55063;SDS011;40963;52.168;21.296;2023-08-12T09:36:16;6.05;;;1.50;;
55063;SDS011;40963;52.168;21.296;2023-08-12T09:38:43;5.28;;;1.42;;
55063;SDS011;40963;52.168;21.296;2023-08-12T09:41:09;3.55;;;1.60;;
55063;SDS011;40963;52.168;21.296;2023-08-12T09:43:35;7.05;;;1.52;;
55063;SDS011;40963;52.168;21.296;2023-08-12T09:46:06;3.10;;;1.75;;
55063;SDS011;40963;52.168;21.296;2023-08-12T09:48:35;4.00;;;1.30;;
55063;SDS011;40963;52.168;21.296;2023-08-12T09:51:00;3.85;;;1.52;;
55063;SDS011;40963;52.168;21.296;2023-08-12T09:53:26;2.05;;;1.13;;
55063;SDS011;40963;52.168;21.296;2023-08-12T09:55:52;6.10;;;1.40;;
55063;SDS011;40963;52.168;21.296;2023-08-12T09:58:19;7.25;;;1.42;;
55063;SDS011;40963;52.168;21.296;2023-08-12T10:00:48;2.00;;;1.30;;
55063;SDS011;40963;52.168;21.296;2023-08-12T10:03:14;2.22;;;1.48;;
55063;SDS011;40963;52.168;21.296;2023-08-12T10:05:42;7.93;;;2.08;;
55063;SDS011;40963;52.168;21.296;2023-08-12T10:08:08;4.15;;;1.63;;
55063;SDS011;40963;52.168;21.296;2023-08-12T10:10:35;4.57;;;2.13;;
55063;SDS011;40963;52.168;21.296;2023-08-12T10:13:01;4.57;;;1.65;;
55063;SDS011;40963;52.168;21.296;2023-08-12T10:15:28;7.03;;;1.73;;
55063;SDS011;40963;52.168;21.296;2023-08-12T10:17:55;2.08;;;1.27;;
55063;SDS011;40963;52.168;21.296;2023-08-12T10:20:23;3.65;;;1.40;;
55063;SDS011;40963;52.168;21.296;2023-08-12T10:22:49;4.00;;;1.35;;
55063;SDS011;40963;52.168;21.296;2023-08-12T10:25:15;2.35;;;1.48;;
55063;SDS011;40963;52.168;21.296;2023-08-12T10:27:43;3.55;;;1.30;;
55063;SDS011;40963;52.168;21.296;2023-08-12T10:30:09;2.95;;;1.30;;
55063;SDS011;40963;52.168;21.296;2023-08-12T10:32:37;3.03;;;1.48;;
55063;SDS011;40963;52.168;21.296;2023-08-12T10:35:04;3.72;;;1.20;;
55063;SDS011;40963;52.168;21.296;2023-08-12T10:37:31;6.00;;;2.00;;
55063;SDS011;40963;52.168;21.296;2023-08-12T10:39:58;5.43;;;1.38;;
55063;SDS011;40963;52.168;21.296;2023-08-12T10:42:40;4.05;;;1.60;;
55063;SDS011;40963;52.168;21.296;2023-08-12T10:45:11;1.30;;;1.20;;
55063;SDS011;40963;52.168;21.296;2023-08-12T10:47:37;3.70;;;1.50;;
55063;SDS011;40963;52.168;21.296;2023-08-12T10:50:05;4.28;;;1.40;;
55063;SDS011;40963;52.168;21.296;2023-08-12T10:52:31;3.55;;;1.58;;
55063;SDS011;40963;52.168;21.296;2023-08-12T10:55:17;6.97;;;1.92;;
55063;SDS011;40963;52.168;21.296;2023-08-12T10:57:43;5.32;;;1.30;;
55063;SDS011;40963;52.168;21.296;2023-08-12T11:00:19;2.03;;;1.35;;
55063;SDS011;40963;52.168;21.296;2023-08-12T11:02:52;3.63;;;1.65;;
55063;SDS011;40963;52.168;21.296;2023-08-12T11:05:18;3.30;;;1.67;;
55063;SDS011;40963;52.168;21.296;2023-08-12T11:08:03;28.20;;;2.67;;
55063;SDS011;40963;52.168;21.296;2023-08-12T11:10:31;5.60;;;1.85;;
55063;SDS011;40963;52.168;21.296;2023-08-12T11:12:58;2.72;;;1.35;;
55063;SDS011;40963;52.168;21.296;2023-08-12T11:16:04;5.60;;;1.70;;
55063;SDS011;40963;52.168;21.296;2023-08-12T11:18:17;4.78;;;1.48;;
55063;SDS011;40963;52.168;21.296;2023-08-12T11:20:44;2.75;;;1.10;;
55063;SDS011;40963;52.168;21.296;2023-08-12T11:23:11;4.38;;;1.65;;
55063;SDS011;40963;52.168;21.296;2023-08-12T11:25:38;2.83;;;1.35;;
55063;SDS011;40963;52.168;21.296;2023-08-12T11:28:05;3.33;;;1.45;;
55063;SDS011;40963;52.168;21.296;2023-08-12T11:30:32;2.33;;;1.13;;
55063;SDS011;40963;52.168;21.296;2023-08-12T11:32:58;4.30;;;1.77;;
55063;SDS011;40963;52.168;21.296;2023-08-12T11:35:24;4.40;;;1.25;;
55063;SDS011;40963;52.168;21.296;2023-08-12T11:37:51;5.50;;;1.70;;
55063;SDS011;40963;52.168;21.296;2023-08-12T11:40:18;5.53;;;1.75;;
55063;SDS011;40963;52.168;21.296;2023-08-12T11:42:47;5.15;;;1.30;;
55063;SDS011;40963;52.168;21.296;2023-08-12T11:45:17;2.70;;;1.52;;
55063;SDS011;40963;52.168;21.296;2023-08-12T11:47:45;4.13;;;1.30;;
55063;SDS011;40963;52.168;21.296;2023-08-12T11:50:17;2.78;;;1.25;;
55063;SDS011;40963;52.168;21.296;2023-08-12T11:52:44;2.35;;;1.17;;
55063;SDS011;40963;52.168;21.296;2023-08-12T11:55:10;2.67;;;1.45;;
55063;SDS011;40963;52.168;21.296;2023-08-12T11:57:36;3.92;;;1.15;;
55063;SDS011;40963;52.168;21.296;2023-08-12T12:00:06;1.75;;;1.30;;
55063;SDS011;40963;52.168;21.296;2023-08-12T12:02:38;3.88;;;1.70;;
55063;SDS011;40963;52.168;21.296;2023-08-12T12:05:15;2.97;;;1.40;;
55063;SDS011;40963;52.168;21.296;2023-08-12T12:07:41;3.85;;;1.25;;
55063;SDS011;40963;52.168;21.296;2023-08-12T12:10:12;2.33;;;1.25;;
55063;SDS011;40963;52.168;21.296;2023-08-12T12:12:40;1.30;;;1.20;;
55063;SDS011;40963;52.168;21.296;2023-08-12T12:15:06;2.67;;;1.50;;
55063;SDS011;40963;52.168;21.296;2023-08-12T12:17:32;6.05;;;1.60;;
55063;SDS011;40963;52.168;21.296;2023-08-12T12:19:58;4.70;;;1.15;;
55063;SDS011;40963;52.168;21.296;2023-08-12T12:22:29;2.83;;;1.27;;
55063;SDS011;40963;52.168;21.296;2023-08-12T12:24:57;2.33;;;1.33;;
55063;SDS011;40963;52.168;21.296;2023-08-12T12:27:24;3.53;;;1.40;;
55063;SDS011;40963;52.168;21.296;2023-08-12T12:29:50;3.47;;;1.75;;
55063;SDS011;40963;52.168;21.296;2023-08-12T12:32:18;5.95;;;1.58;;
55063;SDS011;40963;52.168;21.296;2023-08-12T12:34:44;3.17;;;1.33;;
55063;SDS011;40963;52.168;21.296;2023-08-12T12:37:11;2.90;;;1.60;;
55063;SDS011;40963;52.168;21.296;2023-08-12T12:39:37;1.67;;;1.40;;
55063;SDS011;40963;52.168;21.296;2023-08-12T12:42:03;3.83;;;1.63;;
55063;SDS011;40963;52.168;21.296;2023-08-12T12:44:29;4.07;;;1.50;;
55063;SDS011;40963;52.168;21.296;2023-08-12T12:46:55;8.38;;;1.48;;
55063;SDS011;40963;52.168;21.296;2023-08-12T12:49:20;2.50;;;1.45;;
55063;SDS011;40963;52.168;21.296;2023-08-12T12:51:46;3.25;;;1.40;;
55063;SDS011;40963;52.168;21.296;2023-08-12T12:54:12;4.72;;;1.17;;
55063;SDS011;40963;52.168;21.296;2023-08-12T12:56:37;4.40;;;1.30;;
55063;SDS011;40963;52.168;21.296;2023-08-12T12:59:03;2.05;;;1.20;;
55063;SDS011;40963;52.168;21.296;2023-08-12T13:01:29;4.10;;;1.45;;
55063;SDS011;40963;52.168;21.296;2023-08-12T13:03:54;4.68;;;1.40;;
55063;SDS011;40963;52.168;21.296;2023-08-12T13:06:20;5.35;;;2.13;;
55063;SDS011;40963;52.168;21.296;2023-08-12T13:08:45;7.47;;;4.30;;
55063;SDS011;40963;52.168;21.296;2023-08-12T13:11:11;7.10;;;1.70;;
55063;SDS011;40963;52.168;21.296;2023-08-12T13:13:36;2.22;;;1.38;;
55063;SDS011;40963;52.168;21.296;2023-08-12T13:16:02;7.25;;;3.13;;
55063;SDS011;40963;52.168;21.296;2023-08-12T13:18:27;5.03;;;1.58;;
55063;SDS011;40963;52.168;21.296;2023-08-12T13:20:53;6.43;;;1.38;;
55063;SDS011;40963;52.168;21.296;2023-08-12T13:23:19;2.13;;;1.30;;
55063;SDS011;40963;52.168;21.296;2023-08-12T13:25:44;1.80;;;1.25;;
55063;SDS011;40963;52.168;21.296;2023-08-12T13:28:10;3.65;;;1.63;;
55063;SDS011;40963;52.168;21.296;2023-08-12T13:30:35;4.15;;;1.50;;
55063;SDS011;40963;52.168;21.296;2023-08-12T13:33:02;1.83;;;1.40;;
55063;SDS011;40963;52.168;21.296;2023-08-12T13:35:28;5.05;;;1.40;;
55063;SDS011;40963;52.168;21.296;2023-08-12T13:37:53;2.65;;;1.45;;
55063;SDS011;40963;52.168;21.296;2023-08-12T13:40:19;3.20;;;1.98;;
55063;SDS011;40963;52.168;21.296;2023-08-12T13:42:45;3.53;;;1.30;;
55063;SDS011;40963;52.168;21.296;2023-08-12T13:45:12;2.25;;;1.33;;
55063;SDS011;40963;52.168;21.296;2023-08-12T13:47:38;3.10;;;1.48;;
55063;SDS011;40963;52.168;21.296;2023-08-12T13:50:03;3.58;;;1.50;;
55063;SDS011;40963;52.168;21.296;2023-08-12T13:52:30;3.10;;;1.80;;
55063;SDS011;40963;52.168;21.296;2023-08-12T13:54:55;1.92;;;1.25;;
55063;SDS011;40963;52.168;21.296;2023-08-12T13:57:21;1.58;;;1.30;;
55063;SDS011;40963;52.168;21.296;2023-08-12T13:59:47;3.72;;;1.50;;
55063;SDS011;40963;52.168;21.296;2023-08-12T14:02:13;4.05;;;1.30;;
55063;SDS011;40963;52.168;21.296;2023-08-12T14:04:39;4.72;;;1.63;;
55063;SDS011;40963;52.168;21.296;2023-08-12T14:07:05;1.95;;;1.50;;
55063;SDS011;40963;52.168;21.296;2023-08-12T14:09:30;2.47;;;1.60;;
55063;SDS011;40963;52.168;21.296;2023-08-12T14:11:56;9.35;;;1.85;;
55063;SDS011;40963;52.168;21.296;2023-08-12T14:14:22;2.90;;;1.83;;
55063;SDS011;40963;52.168;21.296;2023-08-12T14:16:50;3.38;;;1.73;;
55063;SDS011;40963;52.168;21.296;2023-08-12T14:19:15;2.95;;;1.60;;
55063;SDS011;40963;52.168;21.296;2023-08-12T14:21:42;4.18;;;1.50;;
55063;SDS011;40963;52.168;21.296;2023-08-12T14:24:08;4.78;;;1.60;;